Time;durP1;ratioP1;P1;durP2;ratioP2;P2;SDS_P1;SDS_P2;PMS_P1;PMS_P2;Temp;Humidity;BMP_temperature;BMP_pressure;BME280_temperature;BME280_humidity;BME280_pressure;Samples;Min_cycle;Max_cycle;Signal;HPM_P1;HPM_P2
2022/10/19 00:00:10;;;;;;;;;;;19.90;72.10;;;;;;5052776;28;20015;-69
2022/10/19 00:02:35;;;;;;;;;;;19.80;72.60;;;;;;5053620;28;19925;-69
2022/10/19 00:05:01;;;;;;;;;;;19.80;72.00;;;;;;5053361;28;19928;-69
2022/10/19 00:07:26;;;;;;;;;;;19.90;72.10;;;;;;5052501;28;19951;-69
2022/10/19 00:09:52;;;;;;;;;;;19.80;72.00;;;;;;5053600;28;19924;-69
2022/10/19 00:12:17;;;;;;;;;;;19.80;72.00;;;;;;5053191;28;19925;-69
2022/10/19 00:14:43;;;;;;;;;;;19.80;72.00;;;;;;5052807;28;19946;-69
2022/10/19 00:17:08;;;;;;;;;;;19.80;72.00;;;;;;5052746;28;19978;-69
2022/10/19 00:19:34;;;;;;;;;;;19.80;72.00;;;;;;5053323;28;20036;-68
2022/10/19 00:21:59;;;;;;;;;;;19.80;71.90;;;;;;5052140;28;19932;-68
2022/10/19 00:24:25;;;;;;;;;;;19.80;71.90;;;;;;5052889;28;20444;-68
2022/10/19 00:26:50;;;;;;;;;;;19.80;71.90;;;;;;5053222;28;19971;-68
2022/10/19 00:29:16;;;;;;;;;;;19.80;71.90;;;;;;5051804;28;20388;-68
2022/10/19 00:31:41;;;;;;;;;;;19.80;71.90;;;;;;5052949;28;20027;-68
2022/10/19 00:34:07;;;;;;;;;;;19.80;71.90;;;;;;5052364;28;19959;-68
2022/10/19 00:36:33;;;;;;;;;;;19.80;71.90;;;;;;5051949;28;19924;-68
2022/10/19 00:38:59;;;;;;;;;;;19.80;71.90;;;;;;5052676;28;19929;-68
2022/10/19 00:41:25;;;;;;;;;;;19.70;71.90;;;;;;5052665;28;20515;-68
2022/10/19 00:43:54;;;;;;;;;;;19.70;71.80;;;;;;5052136;28;19929;-68
2022/10/19 00:46:19;;;;;;;;;;;19.80;71.90;;;;;;5052468;28;19924;-68
2022/10/19 00:48:45;;;;;;;;;;;19.70;71.90;;;;;;5052048;28;19925;-68
2022/10/19 00:51:10;;;;;;;;;;;19.70;71.80;;;;;;5052068;28;19935;-67
2022/10/19 00:53:36;;;;;;;;;;;19.80;71.90;;;;;;5052787;28;20034;-68
2022/10/19 00:56:02;;;;;;;;;;;19.70;71.80;;;;;;5052096;28;19924;-68
2022/10/19 00:58:27;;;;;;;;;;;19.80;71.80;;;;;;5052428;28;20327;-68
2022/10/19 01:00:53;;;;;;;;;;;19.70;71.80;;;;;;5052532;28;19924;-68
2022/10/19 01:03:18;;;;;;;;;;;19.70;71.70;;;;;;5051233;28;19929;-68
2022/10/19 01:05:44;;;;;;;;;;;19.70;71.70;;;;;;5068144;28;19924;-68
2022/10/19 01:08:09;;;;;;;;;;;19.70;71.80;;;;;;5067554;28;20281;-68
2022/10/19 01:10:41;;;;;;;;;;;19.70;71.70;;;;;;5051786;28;19932;-68
2022/10/19 01:13:13;;;;;;;;;;;19.70;71.70;;;;;;5067459;28;20296;-68
2022/10/19 01:15:42;;;;;;;;;;;19.70;71.70;;;;;;5067780;28;19925;-68
2022/10/19 01:18:07;;;;;;;;;;;19.70;71.70;;;;;;5051056;28;19921;-68
2022/10/19 01:20:39;;;;;;;;;;;19.70;71.70;;;;;;5052598;28;19925;-68
2022/10/19 01:23:23;;;;;;;;;;;19.70;71.70;;;;;;5051976;28;19929;-68
2022/10/19 01:25:53;;;;;;;;;;;19.70;71.60;;;;;;5051762;28;19929;-68
2022/10/19 01:28:18;;;;;;;;;;;19.70;71.70;;;;;;5067059;28;20324;-68
2022/10/19 01:30:47;;;;;;;;;;;19.60;71.60;;;;;;5051462;28;19964;-68
2022/10/19 01:33:18;;;;;;;;;;;19.60;71.60;;;;;;5052008;28;19971;-68
2022/10/19 01:36:02;;;;;;;;;;;19.60;71.60;;;;;;5052295;28;19932;-68
2022/10/19 01:38:33;;;;;;;;;;;19.60;71.60;;;;;;5066505;28;20008;-68
2022/10/19 01:41:15;;;;;;;;;;;19.60;71.50;;;;;;5067827;28;19971;-68
2022/10/19 01:43:42;;;;;;;;;;;19.60;71.50;;;;;;5068104;28;19929;-69
2022/10/19 01:46:10;;;;;;;;;;;19.60;71.50;;;;;;5066889;28;19925;-69
2022/10/19 01:48:36;;;;;;;;;;;19.60;71.50;;;;;;5053148;28;19932;-68
2022/10/19 01:51:04;;;;;;;;;;;19.60;71.50;;;;;;5071607;28;19925;-68
2022/10/19 01:53:34;;;;;;;;;;;19.60;71.50;;;;;;5070361;28;20391;-67
2022/10/19 01:56:00;;;;;;;;;;;19.60;71.50;;;;;;5071297;28;20380;-67
2022/10/19 01:58:26;;;;;;;;;;;19.60;71.50;;;;;;5055535;28;19990;-68
2022/10/19 02:00:52;;;;;;;;;;;19.60;71.50;;;;;;5070299;28;19924;-68
2022/10/19 02:03:17;;;;;;;;;;;19.60;71.40;;;;;;5070490;28;19931;-68
2022/10/19 02:05:43;;;;;;;;;;;19.60;71.40;;;;;;5070671;28;20063;-68
2022/10/19 02:08:12;;;;;;;;;;;19.60;71.40;;;;;;5070094;28;19920;-68
2022/10/19 02:10:38;;;;;;;;;;;19.60;71.40;;;;;;5055586;28;20407;-68
2022/10/19 02:13:04;;;;;;;;;;;19.60;71.40;;;;;;5070481;28;20003;-68
2022/10/19 02:15:29;;;;;;;;;;;19.60;71.40;;;;;;5055356;28;19925;-68
2022/10/19 02:17:56;;;;;;;;;;;19.60;71.40;;;;;;5071090;28;19951;-68
2022/10/19 02:20:22;;;;;;;;;;;19.60;71.40;;;;;;5054572;28;19929;-68
2022/10/19 02:22:47;;;;;;;;;;;19.60;71.40;;;;;;5055467;28;19948;-68
2022/10/19 02:25:12;;;;;;;;;;;19.60;71.30;;;;;;5054891;28;19925;-68
2022/10/19 02:27:40;;;;;;;;;;;19.50;71.30;;;;;;5070031;28;20274;-68
2022/10/19 02:30:07;;;;;;;;;;;19.50;71.20;;;;;;5053634;28;20357;-68
2022/10/19 02:32:32;;;;;;;;;;;19.50;71.30;;;;;;5055143;28;19972;-68
2022/10/19 02:34:58;;;;;;;;;;;19.50;71.30;;;;;;5054544;28;19978;-68
2022/10/19 02:37:23;;;;;;;;;;;19.60;71.30;;;;;;5054763;28;19994;-69
2022/10/19 02:39:49;;;;;;;;;;;19.50;71.90;;;;;;5070336;28;20385;-68
2022/10/19 02:42:34;;;;;;;;;;;19.50;71.20;;;;;;5069661;28;20479;-68
2022/10/19 02:45:16;;;;;;;;;;;19.50;71.20;;;;;;5054498;28;20395;-68
2022/10/19 02:47:42;;;;;;;;;;;19.50;71.20;;;;;;5070493;28;19932;-69
2022/10/19 02:50:08;;;;;;;;;;;19.50;71.20;;;;;;5069531;28;19931;-68
2022/10/19 02:52:35;;;;;;;;;;;19.50;71.20;;;;;;5055127;28;19925;-68
2022/10/19 02:55:01;;;;;;;;;;;19.50;71.20;;;;;;5054946;28;19933;-68
2022/10/19 02:57:26;;;;;;;;;;;19.50;71.20;;;;;;5054038;28;19929;-68
2022/10/19 02:59:52;;;;;;;;;;;19.50;71.10;;;;;;5054118;28;19925;-68
2022/10/19 03:02:17;;;;;;;;;;;19.50;70.90;;;;;;5052987;28;19972;-69
2022/10/19 03:04:46;;;;;;;;;;;19.50;70.90;;;;;;5054964;28;19947;-68
2022/10/19 03:07:13;;;;;;;;;;;19.50;70.90;;;;;;5053496;28;20418;-68
2022/10/19 03:09:39;;;;;;;;;;;19.50;70.90;;;;;;5053759;28;20273;-68
2022/10/19 03:12:04;;;;;;;;;;;19.50;71.00;;;;;;5054658;28;19924;-69
2022/10/19 03:14:30;;;;;;;;;;;19.50;71.10;;;;;;5069718;28;19925;-68
2022/10/19 03:16:55;;;;;;;;;;;19.50;71.10;;;;;;5053273;28;19924;-68
2022/10/19 03:19:21;;;;;;;;;;;19.50;71.10;;;;;;5053956;28;19929;-68
2022/10/19 03:21:46;;;;;;;;;;;19.50;71.10;;;;;;5054495;28;20020;-68
2022/10/19 03:24:12;;;;;;;;;;;19.50;71.10;;;;;;5053405;28;19931;-68
2022/10/19 03:26:37;;;;;;;;;;;19.50;71.10;;;;;;5053892;28;20299;-68
2022/10/19 03:29:03;;;;;;;;;;;19.60;71.20;;;;;;5053941;28;20025;-69
2022/10/19 03:31:28;;;;;;;;;;;19.60;71.20;;;;;;5052936;28;20396;-68
2022/10/19 03:33:54;;;;;;;;;;;19.60;71.20;;;;;;5054085;28;20360;-68
2022/10/19 03:36:22;;;;;;;;;;;19.60;71.30;;;;;;5053915;28;19960;-69
2022/10/19 03:38:48;;;;;;;;;;;19.60;71.30;;;;;;5053090;28;19925;-68
2022/10/19 03:41:14;;;;;;;;;;;19.60;71.30;;;;;;5053032;28;20016;-68
2022/10/19 03:43:40;;;;;;;;;;;19.60;71.30;;;;;;5053753;28;20015;-68
2022/10/19 03:46:05;;;;;;;;;;;19.60;71.90;;;;;;5053219;28;19932;-68
2022/10/19 03:48:31;;;;;;;;;;;19.60;71.30;;;;;;5053825;28;19929;-68
2022/10/19 03:51:01;;;;;;;;;;;19.60;71.20;;;;;;5054026;28;19925;-68
2022/10/19 03:53:26;;;;;;;;;;;19.70;71.30;;;;;;5052907;28;20003;-68
2022/10/19 03:55:51;;;;;;;;;;;19.70;71.20;;;;;;5053859;28;20376;-68
2022/10/19 03:58:17;;;;;;;;;;;19.70;71.10;;;;;;5053715;28;20016;-68
2022/10/19 04:00:42;;;;;;;;;;;19.70;71.20;;;;;;5050282;28;19924;-69
2022/10/19 04:03:08;;;;;;;;;;;19.70;71.20;;;;;;5048210;28;19931;-69
2022/10/19 04:05:33;;;;;;;;;;;19.70;71.10;;;;;;5051977;28;19986;-68
2022/10/19 04:07:59;;;;;;;;;;;19.70;71.10;;;;;;5053369;28;19925;-68
2022/10/19 04:10:24;;;;;;;;;;;19.70;71.00;;;;;;5053402;28;20381;-68
2022/10/19 04:12:50;;;;;;;;;;;19.80;71.10;;;;;;5052276;28;19975;-69
2022/10/19 04:15:15;;;;;;;;;;;19.80;71.10;;;;;;5053111;28;19925;-68
2022/10/19 04:17:41;;;;;;;;;;;19.80;71.60;;;;;;5053589;28;19940;-68
2022/10/19 04:20:06;;;;;;;;;;;19.80;71.10;;;;;;5052504;28;19948;-69
2022/10/19 04:22:32;;;;;;;;;;;19.80;71.00;;;;;;5053487;28;19925;-68
2022/10/19 04:24:57;;;;;;;;;;;19.80;71.00;;;;;;5052528;28;19925;-68
2022/10/19 04:27:23;;;;;;;;;;;19.80;71.00;;;;;;5052504;28;19924;-69
2022/10/19 04:29:48;;;;;;;;;;;19.80;71.00;;;;;;5052867;28;19975;-68
2022/10/19 04:32:14;;;;;;;;;;;19.90;71.00;;;;;;5052700;28;20296;-68
2022/10/19 04:34:39;;;;;;;;;;;19.90;71.00;;;;;;5052221;28;19971;-68
2022/10/19 04:37:05;;;;;;;;;;;19.90;71.00;;;;;;5068540;28;19928;-68
2022/10/19 04:39:30;;;;;;;;;;;19.90;71.00;;;;;;5052599;28;19932;-68
2022/10/19 04:41:56;;;;;;;;;;;19.90;71.00;;;;;;5052135;28;19931;-68
2022/10/19 04:44:21;;;;;;;;;;;19.90;71.00;;;;;;5052681;28;20335;-68
2022/10/19 04:46:47;;;;;;;;;;;19.90;71.00;;;;;;5052958;28;19971;-68
2022/10/19 04:49:12;;;;;;;;;;;19.90;70.90;;;;;;5051496;28;19932;-68
2022/10/19 04:51:38;;;;;;;;;;;20.00;71.00;;;;;;5052943;28;20261;-68
2022/10/19 04:54:03;;;;;;;;;;;20.00;71.00;;;;;;5052667;28;20387;-68
2022/10/19 04:56:31;;;;;;;;;;;20.00;70.90;;;;;;5050768;28;19982;-69
2022/10/19 04:58:56;;;;;;;;;;;20.00;70.90;;;;;;5052436;28;20307;-69
2022/10/19 05:01:22;;;;;;;;;;;20.00;70.90;;;;;;5052059;28;20123;-69
2022/10/19 05:03:47;;;;;;;;;;;20.00;70.80;;;;;;5051451;28;20403;-69
2022/10/19 05:06:13;;;;;;;;;;;20.00;70.80;;;;;;5067531;28;19924;-69
2022/10/19 05:08:39;;;;;;;;;;;20.00;70.90;;;;;;5052526;28;19948;-69
2022/10/19 05:11:05;;;;;;;;;;;20.00;70.80;;;;;;5051619;28;19928;-69
2022/10/19 05:13:31;;;;;;;;;;;20.00;70.80;;;;;;5052292;28;19960;-69
2022/10/19 05:16:00;;;;;;;;;;;20.10;70.90;;;;;;5051722;28;19925;-69
2022/10/19 05:18:26;;;;;;;;;;;20.00;70.80;;;;;;5052200;28;19928;-68
2022/10/19 05:20:59;;;;;;;;;;;20.10;70.80;;;;;;5052120;28;19929;-68
2022/10/19 05:23:24;;;;;;;;;;;20.10;70.80;;;;;;5051738;28;19925;-68
2022/10/19 05:25:57;;;;;;;;;;;20.10;70.80;;;;;;5056586;28;20011;-69
2022/10/19 05:28:22;;;;;;;;;;;20.10;70.80;;;;;;5056288;28;19931;-69
2022/10/19 05:30:48;;;;;;;;;;;20.10;70.80;;;;;;5055577;28;20011;-68
2022/10/19 05:33:13;;;;;;;;;;;20.10;70.80;;;;;;5071343;28;19920;-69
2022/10/19 05:35:39;;;;;;;;;;;20.10;70.70;;;;;;5056478;28;20032;-68
2022/10/19 05:38:04;;;;;;;;;;;20.10;70.80;;;;;;5055443;28;20000;-69
2022/10/19 05:40:30;;;;;;;;;;;20.10;70.70;;;;;;5055869;28;20042;-69
2022/10/19 05:42:56;;;;;;;;;;;20.10;70.70;;;;;;5055856;28;20371;-69
2022/10/19 05:45:21;;;;;;;;;;;20.10;70.70;;;;;;5054990;28;20024;-69
2022/10/19 05:47:47;;;;;;;;;;;20.10;70.70;;;;;;5055775;28;19971;-69
2022/10/19 05:50:12;;;;;;;;;;;20.10;70.70;;;;;;5055758;28;19982;-69
2022/10/19 05:52:38;;;;;;;;;;;20.10;70.70;;;;;;5055545;28;19927;-69
2022/10/19 05:55:03;;;;;;;;;;;20.10;70.70;;;;;;5054954;28;20373;-69
2022/10/19 05:57:30;;;;;;;;;;;20.10;71.30;;;;;;5055708;28;19975;-69
2022/10/19 05:59:57;;;;;;;;;;;20.20;70.70;;;;;;5055387;28;19971;-69
2022/10/19 06:02:23;;;;;;;;;;;20.10;70.70;;;;;;5055593;28;19936;-69
2022/10/19 06:04:48;;;;;;;;;;;20.20;70.60;;;;;;5055916;28;20024;-69
2022/10/19 06:07:14;;;;;;;;;;;20.20;70.60;;;;;;5054786;28;20288;-69
2022/10/19 06:09:39;;;;;;;;;;;20.20;70.50;;;;;;5055781;28;19964;-68
2022/10/19 06:12:05;;;;;;;;;;;20.20;70.30;;;;;;5055159;28;20423;-69
2022/10/19 06:14:30;;;;;;;;;;;20.20;70.50;;;;;;5055177;28;19925;-69
2022/10/19 06:16:56;;;;;;;;;;;20.20;70.40;;;;;;5055393;28;19925;-68
2022/10/19 06:19:21;;;;;;;;;;;20.20;70.40;;;;;;5054643;28;20364;-69
2022/10/19 06:21:47;;;;;;;;;;;20.20;70.40;;;;;;5054865;28;19925;-68
2022/10/19 06:24:12;;;;;;;;;;;20.20;70.40;;;;;;5055183;28;20035;-68
2022/10/19 06:26:38;;;;;;;;;;;20.20;70.40;;;;;;5054191;28;19929;-68
2022/10/19 06:29:03;;;;;;;;;;;20.20;70.40;;;;;;5055396;28;20292;-69
2022/10/19 06:31:29;;;;;;;;;;;20.30;70.60;;;;;;5055189;28;20023;-68
2022/10/19 06:33:55;;;;;;;;;;;20.30;70.60;;;;;;5054446;28;20008;-68
2022/10/19 06:36:21;;;;;;;;;;;20.30;70.70;;;;;;5054617;28;20431;-68
2022/10/19 06:38:46;;;;;;;;;;;20.30;70.70;;;;;;5054950;28;19932;-68
2022/10/19 06:41:12;;;;;;;;;;;20.30;71.40;;;;;;5054272;28;20019;-68
2022/10/19 06:43:37;;;;;;;;;;;20.30;70.80;;;;;;5055316;28;19925;-69
2022/10/19 06:46:06;;;;;;;;;;;20.30;70.80;;;;;;5054786;28;19925;-69
2022/10/19 06:48:32;;;;;;;;;;;20.30;70.90;;;;;;5053709;28;20388;-69
2022/10/19 06:50:58;;;;;;;;;;;20.30;70.90;;;;;;5055061;28;19972;-68
2022/10/19 06:53:23;;;;;;;;;;;20.30;71.00;;;;;;5054877;28;19979;-69
2022/10/19 06:55:49;;;;;;;;;;;20.30;71.10;;;;;;5053919;28;20012;-69
2022/10/19 06:58:14;;;;;;;;;;;20.40;71.10;;;;;;5054351;28;19974;-68
2022/10/19 07:00:40;;;;;;;;;;;20.40;71.20;;;;;;5055705;28;20368;-72
2022/10/19 07:03:06;;;;;;;;;;;20.40;71.20;;;;;;5053489;28;19988;-71
2022/10/19 07:05:31;;;;;;;;;;;20.40;71.10;;;;;;5055011;28;19925;-71
2022/10/19 07:07:56;;;;;;;;;;;20.40;71.20;;;;;;5054695;28;19925;-70
2022/10/19 07:10:22;;;;;;;;;;;20.40;71.20;;;;;;5053156;28;19968;-71
2022/10/19 07:12:47;;;;;;;;;;;20.50;71.10;;;;;;5053827;28;19925;-71
2022/10/19 07:15:13;;;;;;;;;;;20.40;71.10;;;;;;5054650;28;19977;-69
2022/10/19 07:17:38;;;;;;;;;;;20.40;71.10;;;;;;5069423;28;20403;-69
2022/10/19 07:20:04;;;;;;;;;;;20.40;71.00;;;;;;5054856;28;20039;-69
2022/10/19 07:22:30;;;;;;;;;;;20.40;71.00;;;;;;5053853;28;19925;-69
2022/10/19 07:24:55;;;;;;;;;;;20.40;71.10;;;;;;5054285;28;19948;-69
2022/10/19 07:27:20;;;;;;;;;;;20.40;71.10;;;;;;5054442;28;19924;-69
2022/10/19 07:29:46;;;;;;;;;;;20.40;71.10;;;;;;5053842;28;20059;-69
2022/10/19 07:32:11;;;;;;;;;;;20.40;71.10;;;;;;5054308;28;19929;-70
2022/10/19 07:34:37;;;;;;;;;;;20.40;71.10;;;;;;5054800;28;19960;-70
2022/10/19 07:37:02;;;;;;;;;;;20.40;71.10;;;;;;5053897;28;20015;-69
2022/10/19 07:39:28;;;;;;;;;;;20.50;71.20;;;;;;5030574;28;19925;-68
2022/10/19 07:41:53;;;;;;;;;;;20.40;71.00;;;;;;5013384;28;20400;-69
2022/10/19 07:44:19;;;;;;;;;;;20.40;71.00;;;;;;4995721;28;19932;-67
2022/10/19 07:46:44;;;;;;;;;;;20.40;70.90;;;;;;4996786;28;20020;-68
2022/10/19 07:49:12;;;;;;;;;;;20.40;71.00;;;;;;4997582;28;19926;-69
2022/10/19 07:51:37;;;;;;;;;;;20.40;71.00;;;;;;4996636;28;19926;-68
2022/10/19 07:54:03;;;;;;;;;;;20.40;71.00;;;;;;4998524;28;19980;-68
2022/10/19 07:56:28;;;;;;;;;;;20.40;71.10;;;;;;4994355;28;19932;-68
2022/10/19 07:58:54;;;;;;;;;;;20.40;71.00;;;;;;5012056;28;20461;-68
2022/10/19 08:01:21;;;;;;;;;;;20.40;71.10;;;;;;4995341;28;19929;-69
2022/10/19 08:03:46;;;;;;;;;;;20.40;71.10;;;;;;5013405;28;19930;-68
2022/10/19 08:06:13;;;;;;;;;;;20.30;71.00;;;;;;5012752;28;19949;-68
2022/10/19 08:08:38;;;;;;;;;;;20.30;71.00;;;;;;5014013;28;19925;-68
2022/10/19 08:11:22;;;;;;;;;;;20.30;71.10;;;;;;5019385;28;19932;-69
2022/10/19 08:13:48;;;;;;;;;;;20.30;71.00;;;;;;5018966;28;19979;-69
2022/10/19 08:16:36;;;;;;;;;;;20.30;71.00;;;;;;5023920;28;19930;-69
2022/10/19 08:19:02;;;;;;;;;;;20.30;71.10;;;;;;5032982;28;19999;-68
2022/10/19 08:21:28;;;;;;;;;;;20.30;71.10;;;;;;5019916;28;19925;-68
2022/10/19 08:23:53;;;;;;;;;;;20.30;71.10;;;;;;5014024;28;20296;-68
2022/10/19 08:26:19;;;;;;;;;;;20.30;71.10;;;;;;5012832;28;19991;-69
2022/10/19 08:28:44;;;;;;;;;;;20.30;71.10;;;;;;5013921;28;20040;-67
2022/10/19 08:31:17;;;;;;;;;;;20.30;71.00;;;;;;5012446;28;20397;-68
2022/10/19 08:33:43;;;;;;;;;;;20.30;71.00;;;;;;5012992;28;19930;-68
2022/10/19 08:36:09;;;;;;;;;;;20.40;71.10;;;;;;5013332;28;19926;-68
2022/10/19 08:38:34;;;;;;;;;;;20.30;71.00;;;;;;5033224;28;20016;-69
2022/10/19 08:41:20;;;;;;;;;;;20.30;71.00;;;;;;5052427;28;19925;-69
2022/10/19 08:44:15;;;;;;;;;;;20.30;70.90;;;;;;5052716;28;19935;-68
2022/10/19 08:46:47;;;;;;;;;;;20.30;71.00;;;;;;4998966;28;20520;-68
2022/10/19 08:49:14;;;;;;;;;;;20.30;70.90;;;;;;5067825;28;20288;-68
2022/10/19 08:51:40;;;;;;;;;;;20.30;70.90;;;;;;5068905;28;19932;-68
2022/10/19 08:54:11;;;;;;;;;;;20.30;70.90;;;;;;5067692;28;19924;-68
2022/10/19 08:56:39;;;;;;;;;;;20.30;70.90;;;;;;5068272;28;19924;-68
2022/10/19 08:59:04;;;;;;;;;;;20.30;70.90;;;;;;5053178;28;19925;-68
2022/10/19 09:01:38;;;;;;;;;;;20.30;70.70;;;;;;5052256;28;19947;-69
2022/10/19 09:04:10;;;;;;;;;;;20.30;70.70;;;;;;5053157;28;19931;-68
2022/10/19 09:06:50;;;;;;;;;;;20.30;70.60;;;;;;5053253;28;19925;-68
2022/10/19 09:09:15;;;;;;;;;;;20.30;70.60;;;;;;5067413;28;19925;-69
2022/10/19 09:11:41;;;;;;;;;;;20.30;70.40;;;;;;5053185;28;19924;-69
2022/10/19 09:14:26;;;;;;;;;;;20.30;70.40;;;;;;5068007;28;20249;-69
2022/10/19 09:16:51;;;;;;;;;;;20.30;70.20;;;;;;5051755;28;19925;-69
2022/10/19 09:19:20;;;;;;;;;;;20.30;70.20;;;;;;5051609;28;20315;-69
2022/10/19 09:21:47;;;;;;;;;;;20.30;70.20;;;;;;5052705;28;19924;-69
2022/10/19 09:24:22;;;;;;;;;;;20.30;70.20;;;;;;5067205;28;19982;-69
2022/10/19 09:26:50;;;;;;;;;;;20.30;70.10;;;;;;5053021;28;20380;-67
2022/10/19 09:29:20;;;;;;;;;;;20.20;70.00;;;;;;5067189;28;19925;-67
2022/10/19 09:31:46;;;;;;;;;;;20.30;70.10;;;;;;5068167;28;19925;-67
2022/10/19 09:34:16;;;;;;;;;;;20.30;70.20;;;;;;5052470;28;19931;-67
2022/10/19 09:36:42;;;;;;;;;;;20.30;70.20;;;;;;5052099;28;20426;-67
2022/10/19 09:39:11;;;;;;;;;;;20.30;70.20;;;;;;5052297;28;19925;-67
2022/10/19 09:41:42;;;;;;;;;;;20.30;70.20;;;;;;5052851;28;19986;-67
2022/10/19 09:44:08;;;;;;;;;;;20.30;70.20;;;;;;5051622;28;20459;-67
2022/10/19 09:46:44;;;;;;;;;;;20.30;70.20;;;;;;5067905;28;20024;-67
2022/10/19 09:49:10;;;;;;;;;;;20.30;70.20;;;;;;5067751;28;20046;-67
2022/10/19 09:51:39;;;;;;;;;;;20.30;70.20;;;;;;5051420;28;19921;-67
2022/10/19 09:54:05;;;;;;;;;;;20.30;70.30;;;;;;5052381;28;20372;-67
2022/10/19 09:56:30;;;;;;;;;;;20.30;70.30;;;;;;5052223;28;19932;-67
2022/10/19 09:58:57;;;;;;;;;;;20.30;70.30;;;;;;5050266;28;19979;-67
2022/10/19 10:01:30;;;;;;;;;;;20.30;70.20;;;;;;5052234;28;19956;-67
2022/10/19 10:04:14;;;;;;;;;;;20.20;70.00;;;;;;5052092;28;20384;-67
2022/10/19 10:06:40;;;;;;;;;;;20.20;69.40;;;;;;5052259;28;19954;-67
2022/10/19 10:09:05;;;;;;;;;;;20.20;69.30;;;;;;5052317;28;20418;-67
2022/10/19 10:11:37;;;;;;;;;;;20.20;69.40;;;;;;5054915;28;19925;-67
2022/10/19 10:14:05;;;;;;;;;;;20.20;69.30;;;;;;5055733;28;19947;-67
2022/10/19 10:16:32;;;;;;;;;;;20.20;69.40;;;;;;5053940;28;19975;-66
2022/10/19 10:19:07;;;;;;;;;;;20.20;69.50;;;;;;5072950;28;19928;-67
2022/10/19 10:21:35;;;;;;;;;;;20.20;69.50;;;;;;5070977;28;19929;-69
2022/10/19 10:24:02;;;;;;;;;;;20.20;69.40;;;;;;5071688;28;20398;-69
2022/10/19 10:26:27;;;;;;;;;;;20.20;69.60;;;;;;5054283;28;20403;-69
2022/10/19 10:28:53;;;;;;;;;;;20.30;69.80;;;;;;5055539;28;19924;-69
2022/10/19 10:31:23;;;;;;;;;;;20.30;69.80;;;;;;5055651;28;19947;-69
2022/10/19 10:33:56;;;;;;;;;;;20.30;70.00;;;;;;5055142;28;20007;-69
2022/10/19 10:36:22;;;;;;;;;;;20.30;70.00;;;;;;5055188;28;19924;-69
2022/10/19 10:38:51;;;;;;;;;;;20.30;70.00;;;;;;5055321;28;20281;-68
2022/10/19 10:41:19;;;;;;;;;;;20.30;70.00;;;;;;5068894;28;20072;-70
2022/10/19 10:43:50;;;;;;;;;;;20.30;69.90;;;;;;5070843;28;19925;-69
2022/10/19 10:46:20;;;;;;;;;;;20.30;69.90;;;;;;5055034;28;19925;-70
2022/10/19 10:48:52;;;;;;;;;;;20.30;69.90;;;;;;5054638;28;20005;-70
2022/10/19 10:51:19;;;;;;;;;;;20.30;70.00;;;;;;5051943;28;19925;-69
2022/10/19 10:53:45;;;;;;;;;;;20.30;70.00;;;;;;5053712;28;19925;-70
2022/10/19 10:56:23;;;;;;;;;;;20.30;70.00;;;;;;5052704;28;19936;-70
2022/10/19 10:58:59;;;;;;;;;;;20.30;70.20;;;;;;5054927;28;19932;-72
2022/10/19 11:01:32;;;;;;;;;;;20.30;70.00;;;;;;5069175;28;20288;-67
2022/10/19 11:04:06;;;;;;;;;;;20.30;70.00;;;;;;5068320;28;19924;-67
2022/10/19 11:06:32;;;;;;;;;;;20.30;70.00;;;;;;5069111;28;20337;-67
2022/10/19 11:09:02;;;;;;;;;;;20.30;69.90;;;;;;5035071;28;20012;-67
2022/10/19 11:11:33;;;;;;;;;;;20.30;69.90;;;;;;5053117;28;19925;-67
2022/10/19 11:14:08;;;;;;;;;;;20.40;70.00;;;;;;5054779;28;20380;-67
2022/10/19 11:16:34;;;;;;;;;;;20.30;69.90;;;;;;5054242;28;19925;-67
2022/10/19 11:19:17;;;;;;;;;;;20.30;69.80;;;;;;5070237;28;19925;-67
2022/10/19 11:21:43;;;;;;;;;;;20.40;69.90;;;;;;5068626;28;20396;-67
2022/10/19 11:24:20;;;;;;;;;;;20.40;69.90;;;;;;5054724;28;19983;-67
2022/10/19 11:26:58;;;;;;;;;;;20.30;69.70;;;;;;5070407;28;19925;-67
2022/10/19 11:29:32;;;;;;;;;;;20.40;69.80;;;;;;5053608;28;19925;-67
2022/10/19 11:31:58;;;;;;;;;;;20.40;69.70;;;;;;5051266;28;20003;-68
2022/10/19 11:34:28;;;;;;;;;;;20.40;69.80;;;;;;5049732;28;19925;-69
2022/10/19 11:36:59;;;;;;;;;;;20.40;69.70;;;;;;5054066;28;20300;-69
2022/10/19 11:39:40;;;;;;;;;;;20.40;69.70;;;;;;5050720;28;20257;-69
2022/10/19 11:42:12;;;;;;;;;;;20.40;69.70;;;;;;5040836;28;19925;-69
2022/10/19 11:44:57;;;;;;;;;;;20.40;69.70;;;;;;5052802;28;20007;-69
2022/10/19 11:47:33;;;;;;;;;;;20.40;69.70;;;;;;5028104;28;20167;-68
2022/10/19 11:49:58;;;;;;;;;;;20.40;69.70;;;;;;5052773;28;20701;-69
2022/10/19 11:52:23;;;;;;;;;;;20.40;69.60;;;;;;5053377;28;19924;-68
2022/10/19 11:54:52;;;;;;;;;;;20.40;69.50;;;;;;5053873;28;19932;-69
2022/10/19 11:57:41;;;;;;;;;;;20.40;69.60;;;;;;5052632;28;20368;-70
2022/10/19 12:00:14;;;;;;;;;;;20.40;69.60;;;;;;5068778;28;19975;-69
2022/10/19 12:02:48;;;;;;;;;;;20.40;69.50;;;;;;5068876;28;19932;-69
2022/10/19 12:05:15;;;;;;;;;;;20.40;69.60;;;;;;5052780;28;19972;-69
2022/10/19 12:07:47;;;;;;;;;;;20.40;69.50;;;;;;5068916;28;20019;-69
2022/10/19 12:10:48;;;;;;;;;;;20.40;69.50;;;;;;5053025;28;19974;-69
2022/10/19 12:13:14;;;;;;;;;;;20.40;69.60;;;;;;5010070;28;19925;-69
2022/10/19 12:15:43;;;;;;;;;;;20.40;69.60;;;;;;5060506;28;19925;-68
2022/10/19 12:18:11;;;;;;;;;;;20.40;69.60;;;;;;5067261;28;19928;-69
2022/10/19 12:20:42;;;;;;;;;;;20.40;69.60;;;;;;5068765;28;19920;-68
2022/10/19 12:23:17;;;;;;;;;;;20.40;69.50;;;;;;5053412;28;19972;-69
2022/10/19 12:25:42;;;;;;;;;;;20.40;69.40;;;;;;5053171;28;19932;-69
2022/10/19 12:28:08;;;;;;;;;;;20.40;69.40;;;;;;5068723;28;19927;-68
2022/10/19 12:30:34;;;;;;;;;;;20.40;69.40;;;;;;5068984;28;19925;-68
2022/10/19 12:33:00;;;;;;;;;;;20.40;69.40;;;;;;5067740;28;20292;-68
2022/10/19 12:35:51;;;;;;;;;;;20.40;69.40;;;;;;5053360;28;19933;-68
2022/10/19 12:38:40;;;;;;;;;;;20.30;69.30;;;;;;5050592;28;20360;-69
2022/10/19 12:41:09;;;;;;;;;;;20.30;69.30;;;;;;5033002;28;19951;-68
2022/10/19 12:43:37;;;;;;;;;;;20.40;69.40;;;;;;5053045;28;19970;-68
2022/10/19 12:46:09;;;;;;;;;;;20.30;69.30;;;;;;5068185;28;19929;-69
2022/10/19 12:48:38;;;;;;;;;;;20.30;69.30;;;;;;5053346;28;19971;-68
2022/10/19 12:51:04;;;;;;;;;;;20.30;69.30;;;;;;5052843;28;19929;-68
2022/10/19 12:53:33;;;;;;;;;;;20.30;69.10;;;;;;5052069;28;19966;-67
2022/10/19 12:55:59;;;;;;;;;;;20.30;69.00;;;;;;5068522;28;19928;-67
2022/10/19 12:58:25;;;;;;;;;;;20.30;69.00;;;;;;5052871;28;19928;-67
2022/10/19 13:01:00;;;;;;;;;;;20.30;69.00;;;;;;5052696;28;20380;-69
2022/10/19 13:03:29;;;;;;;;;;;20.30;68.90;;;;;;5052398;28;20304;-69
2022/10/19 13:05:56;;;;;;;;;;;20.30;68.70;;;;;;5053232;28;19949;-69
2022/10/19 13:08:29;;;;;;;;;;;20.30;68.70;;;;;;5067328;28;19925;-68
2022/10/19 13:11:04;;;;;;;;;;;20.30;68.70;;;;;;5053137;28;19987;-68
2022/10/19 13:13:49;;;;;;;;;;;20.30;68.70;;;;;;5052810;28;19986;-68
2022/10/19 13:16:27;;;;;;;;;;;20.40;68.80;;;;;;5051757;28;19932;-67
2022/10/19 13:18:59;;;;;;;;;;;20.40;68.70;;;;;;5052552;28;20336;-67
2022/10/19 13:22:03;;;;;;;;;;;20.40;68.60;;;;;;5051704;28;19944;-67
2022/10/19 13:24:29;;;;;;;;;;;20.40;68.60;;;;;;5010786;28;19926;-67
2022/10/19 13:27:01;;;;;;;;;;;20.40;68.60;;;;;;5010271;28;20061;-67
2022/10/19 13:29:27;;;;;;;;;;;20.30;68.20;;;;;;5031006;28;20389;-66
2022/10/19 13:31:53;;;;;;;;;;;20.30;68.10;;;;;;5068161;28;19928;-66
2022/10/19 13:34:18;;;;;;;;;;;20.30;68.20;;;;;;5068116;28;19931;-66
2022/10/19 13:36:59;;;;;;;;;;;20.30;68.10;;;;;;5050931;28;20020;-66
2022/10/19 13:39:28;;;;;;;;;;;20.30;68.10;;;;;;5067750;28;19932;-67
2022/10/19 13:41:55;;;;;;;;;;;20.30;68.10;;;;;;5052404;28;19929;-66
2022/10/19 13:44:23;;;;;;;;;;;20.40;68.20;;;;;;5052095;28;19947;-67
2022/10/19 13:47:04;;;;;;;;;;;20.40;68.10;;;;;;5072082;28;19979;-67
2022/10/19 13:49:38;;;;;;;;;;;20.40;68.10;;;;;;5055418;28;20335;-67
2022/10/19 13:52:04;;;;;;;;;;;20.40;68.10;;;;;;5056550;28;19925;-66
2022/10/19 13:54:36;;;;;;;;;;;20.40;68.20;;;;;;5056018;28;19951;-66
2022/10/19 13:57:09;;;;;;;;;;;20.40;68.10;;;;;;5071514;28;19932;-66
2022/10/19 13:59:50;;;;;;;;;;;20.50;67.90;;;;;;5056674;28;19970;-67
2022/10/19 14:02:18;;;;;;;;;;;20.50;68.00;;;;;;5037763;28;20011;-67
2022/10/19 14:04:50;;;;;;;;;;;20.50;67.90;;;;;;5055163;28;19925;-68
2022/10/19 14:07:16;;;;;;;;;;;20.60;67.90;;;;;;5056253;28;20019;-66
2022/10/19 14:10:12;;;;;;;;;;;20.60;67.70;;;;;;5071876;28;19925;-66
2022/10/19 14:12:38;;;;;;;;;;;20.60;67.80;;;;;;5053301;28;19925;-65
2022/10/19 14:15:20;;;;;;;;;;;20.60;68.00;;;;;;5070636;28;19929;-64
2022/10/19 14:17:45;;;;;;;;;;;20.70;68.00;;;;;;5050712;28;19925;-65
2022/10/19 14:20:25;;;;;;;;;;;20.70;68.00;;;;;;5046480;28;19986;-60
2022/10/19 14:22:50;;;;;;;;;;;20.70;67.90;;;;;;5053523;28;19924;-60